sensor_id;sensor_type;location;lat;lon;timestamp;temperature;humidity
46706;DHT22;33519;50.712;7.124;2023-02-21T00:00:42;8.20;99.90
46706;DHT22;33519;50.712;7.124;2023-02-21T00:03:27;8.20;99.90
46706;DHT22;33519;50.712;7.124;2023-02-21T00:06:12;8.20;99.90
46706;DHT22;33519;50.712;7.124;2023-02-21T00:08:52;8.20;99.90
46706;DHT22;33519;50.712;7.124;2023-02-21T00:11:41;8.20;99.90
46706;DHT22;33519;50.712;7.124;2023-02-21T00:14:27;8.20;99.90
46706;DHT22;33519;50.712;7.124;2023-02-21T00:17:12;8.20;99.90
46706;DHT22;33519;50.712;7.124;2023-02-21T00:19:57;8.30;99.90
46706;DHT22;33519;50.712;7.124;2023-02-21T00:22:44;8.20;99.90
46706;DHT22;33519;50.712;7.124;2023-02-21T00:25:29;8.20;99.90
46706;DHT22;33519;50.712;7.124;2023-02-21T00:28:14;8.10;99.90
46706;DHT22;33519;50.712;7.124;2023-02-21T00:30:59;8.10;99.90
46706;DHT22;33519;50.712;7.124;2023-02-21T00:33:45;8.10;99.90
46706;DHT22;33519;50.712;7.124;2023-02-21T00:36:30;8.10;99.90
46706;DHT22;33519;50.712;7.124;2023-02-21T00:39:16;8.10;99.90
46706;DHT22;33519;50.712;7.124;2023-02-21T00:42:01;8.10;99.90
46706;DHT22;33519;50.712;7.124;2023-02-21T00:44:46;8.10;99.90
46706;DHT22;33519;50.712;7.124;2023-02-21T00:47:31;8.10;99.90
46706;DHT22;33519;50.712;7.124;2023-02-21T00:50:16;8.10;99.90
46706;DHT22;33519;50.712;7.124;2023-02-21T00:53:01;8.10;99.90
46706;DHT22;33519;50.712;7.124;2023-02-21T00:55:46;8.10;99.90
46706;DHT22;33519;50.712;7.124;2023-02-21T00:58:31;8.10;99.90
46706;DHT22;33519;50.712;7.124;2023-02-21T01:01:16;8.10;99.90
46706;DHT22;33519;50.712;7.124;2023-02-21T01:04:02;8.10;99.90
46706;DHT22;33519;50.712;7.124;2023-02-21T01:06:49;8.10;99.90
46706;DHT22;33519;50.712;7.124;2023-02-21T01:09:34;8.00;99.90
46706;DHT22;33519;50.712;7.124;2023-02-21T01:12:19;8.00;99.90
46706;DHT22;33519;50.712;7.124;2023-02-21T01:15:04;8.00;99.90
46706;DHT22;33519;50.712;7.124;2023-02-21T01:17:49;8.10;99.90
46706;DHT22;33519;50.712;7.124;2023-02-21T01:20:34;8.10;99.90
46706;DHT22;33519;50.712;7.124;2023-02-21T01:23:19;8.10;99.90
46706;DHT22;33519;50.712;7.124;2023-02-21T01:26:07;8.10;99.90
46706;DHT22;33519;50.712;7.124;2023-02-21T01:28:52;8.10;99.90
46706;DHT22;33519;50.712;7.124;2023-02-21T01:31:37;8.10;99.90
46706;DHT22;33519;50.712;7.124;2023-02-21T01:34:22;8.20;99.90
46706;DHT22;33519;50.712;7.124;2023-02-21T01:37:07;8.20;99.90
46706;DHT22;33519;50.712;7.124;2023-02-21T01:39:52;8.20;99.90
46706;DHT22;33519;50.712;7.124;2023-02-21T01:42:37;8.10;99.90
46706;DHT22;33519;50.712;7.124;2023-02-21T01:48:09;8.10;99.90
46706;DHT22;33519;50.712;7.124;2023-02-21T01:50:55;8.10;99.90
46706;DHT22;33519;50.712;7.124;2023-02-21T01:53:40;8.10;99.90
46706;DHT22;33519;50.712;7.124;2023-02-21T01:56:26;8.10;99.90
46706;DHT22;33519;50.712;7.124;2023-02-21T01:59:12;8.10;99.90
46706;DHT22;33519;50.712;7.124;2023-02-21T02:02:02;8.10;99.90
46706;DHT22;33519;50.712;7.124;2023-02-21T02:04:48;8.00;99.90
46706;DHT22;33519;50.712;7.124;2023-02-21T02:07:34;8.10;99.90
46706;DHT22;33519;50.712;7.124;2023-02-21T02:10:20;8.10;99.90
46706;DHT22;33519;50.712;7.124;2023-02-21T02:13:09;8.10;99.90
46706;DHT22;33519;50.712;7.124;2023-02-21T02:15:55;8.00;99.90
46706;DHT22;33519;50.712;7.124;2023-02-21T02:18:32;8.10;99.90
46706;DHT22;33519;50.712;7.124;2023-02-21T02:31:02;8.10;99.90
46706;DHT22;33519;50.712;7.124;2023-02-21T02:39:32;8.10;99.90
46706;DHT22;33519;50.712;7.124;2023-02-21T02:44:57;8.00;99.90
46706;DHT22;33519;50.712;7.124;2023-02-21T02:47:30;8.00;99.90
46706;DHT22;33519;50.712;7.124;2023-02-21T02:49:58;8.00;99.90
46706;DHT22;33519;50.712;7.124;2023-02-21T02:52:26;8.00;99.90
46706;DHT22;33519;50.712;7.124;2023-02-21T02:54:59;8.00;99.90
46706;DHT22;33519;50.712;7.124;2023-02-21T02:57:27;8.00;99.90
46706;DHT22;33519;50.712;7.124;2023-02-21T02:59:55;8.00;99.90
46706;DHT22;33519;50.712;7.124;2023-02-21T03:05:10;7.90;99.90
46706;DHT22;33519;50.712;7.124;2023-02-21T03:07:46;7.90;99.90
46706;DHT22;33519;50.712;7.124;2023-02-21T03:10:20;7.90;99.90
46706;DHT22;33519;50.712;7.124;2023-02-21T03:18:08;7.90;99.90
46706;DHT22;33519;50.712;7.124;2023-02-21T03:20:37;8.00;99.90
46706;DHT22;33519;50.712;7.124;2023-02-21T03:23:05;8.00;99.90
46706;DHT22;33519;50.712;7.124;2023-02-21T03:25:32;7.90;99.90
46706;DHT22;33519;50.712;7.124;2023-02-21T03:27:59;7.90;99.90
46706;DHT22;33519;50.712;7.124;2023-02-21T03:30:27;8.00;99.90
46706;DHT22;33519;50.712;7.124;2023-02-21T03:32:54;8.10;99.90
46706;DHT22;33519;50.712;7.124;2023-02-21T03:35:21;8.00;99.90
46706;DHT22;33519;50.712;7.124;2023-02-21T03:37:49;8.00;99.90
46706;DHT22;33519;50.712;7.124;2023-02-21T03:40:22;8.00;99.90
46706;DHT22;33519;50.712;7.124;2023-02-21T03:42:50;8.00;99.90
46706;DHT22;33519;50.712;7.124;2023-02-21T03:45:16;8.00;99.90
46706;DHT22;33519;50.712;7.124;2023-02-21T03:47:43;8.00;99.90
46706;DHT22;33519;50.712;7.124;2023-02-21T03:50:10;8.10;99.90
46706;DHT22;33519;50.712;7.124;2023-02-21T03:52:36;8.10;99.90
46706;DHT22;33519;50.712;7.124;2023-02-21T03:55:04;8.00;99.90
46706;DHT22;33519;50.712;7.124;2023-02-21T03:57:30;8.00;99.90
46706;DHT22;33519;50.712;7.124;2023-02-21T03:59:57;7.90;99.90
46706;DHT22;33519;50.712;7.124;2023-02-21T04:02:24;8.00;99.90
46706;DHT22;33519;50.712;7.124;2023-02-21T04:04:50;8.00;99.90
46706;DHT22;33519;50.712;7.124;2023-02-21T04:07:18;8.00;99.90
46706;DHT22;33519;50.712;7.124;2023-02-21T04:09:45;8.00;99.90
46706;DHT22;33519;50.712;7.124;2023-02-21T04:12:11;8.00;99.90
46706;DHT22;33519;50.712;7.124;2023-02-21T04:14:38;7.90;99.90
46706;DHT22;33519;50.712;7.124;2023-02-21T04:17:05;7.80;99.90
46706;DHT22;33519;50.712;7.124;2023-02-21T04:19:31;7.90;99.90
46706;DHT22;33519;50.712;7.124;2023-02-21T04:21:58;7.90;99.90
46706;DHT22;33519;50.712;7.124;2023-02-21T04:24:25;7.90;99.90
46706;DHT22;33519;50.712;7.124;2023-02-21T04:26:51;7.90;99.90
46706;DHT22;33519;50.712;7.124;2023-02-21T04:29:18;7.90;99.90
46706;DHT22;33519;50.712;7.124;2023-02-21T04:31:45;7.90;99.90
46706;DHT22;33519;50.712;7.124;2023-02-21T04:34:11;7.90;99.90
46706;DHT22;33519;50.712;7.124;2023-02-21T04:36:38;7.80;99.90
46706;DHT22;33519;50.712;7.124;2023-02-21T04:39:05;7.80;99.90
46706;DHT22;33519;50.712;7.124;2023-02-21T04:41:32;7.80;99.90
46706;DHT22;33519;50.712;7.124;2023-02-21T04:43:58;7.80;99.90
46706;DHT22;33519;50.712;7.124;2023-02-21T04:46:25;7.70;99.90
46706;DHT22;33519;50.712;7.124;2023-02-21T04:48:52;7.60;99.90
46706;DHT22;33519;50.712;7.124;2023-02-21T04:51:20;7.70;99.90
46706;DHT22;33519;50.712;7.124;2023-02-21T04:53:48;7.60;99.90
46706;DHT22;33519;50.712;7.124;2023-02-21T04:56:16;7.70;99.90
46706;DHT22;33519;50.712;7.124;2023-02-21T04:58:44;7.60;99.90
46706;DHT22;33519;50.712;7.124;2023-02-21T05:01:11;7.60;99.90
46706;DHT22;33519;50.712;7.124;2023-02-21T05:03:39;7.60;99.90
46706;DHT22;33519;50.712;7.124;2023-02-21T05:06:05;7.60;99.90
46706;DHT22;33519;50.712;7.124;2023-02-21T05:08:32;7.50;99.90
46706;DHT22;33519;50.712;7.124;2023-02-21T05:10:58;7.40;99.90
46706;DHT22;33519;50.712;7.124;2023-02-21T05:13:25;7.30;99.90
46706;DHT22;33519;50.712;7.124;2023-02-21T05:15:52;7.20;99.90
46706;DHT22;33519;50.712;7.124;2023-02-21T05:18:18;7.20;99.90
46706;DHT22;33519;50.712;7.124;2023-02-21T05:20:48;7.20;99.90
46706;DHT22;33519;50.712;7.124;2023-02-21T05:23:15;7.10;99.90
46706;DHT22;33519;50.712;7.124;2023-02-21T05:25:44;7.00;99.90
46706;DHT22;33519;50.712;7.124;2023-02-21T05:28:10;7.00;99.90
46706;DHT22;33519;50.712;7.124;2023-02-21T05:30:37;6.90;99.90
46706;DHT22;33519;50.712;7.124;2023-02-21T05:33:04;6.90;99.90
46706;DHT22;33519;50.712;7.124;2023-02-21T05:35:30;6.90;99.90
46706;DHT22;33519;50.712;7.124;2023-02-21T05:37:57;6.90;99.90
46706;DHT22;33519;50.712;7.124;2023-02-21T05:40:23;6.80;99.90
46706;DHT22;33519;50.712;7.124;2023-02-21T05:42:50;6.90;99.90
46706;DHT22;33519;50.712;7.124;2023-02-21T05:45:17;6.90;99.90
46706;DHT22;33519;50.712;7.124;2023-02-21T05:47:43;6.80;99.90
46706;DHT22;33519;50.712;7.124;2023-02-21T05:50:10;6.80;99.90
46706;DHT22;33519;50.712;7.124;2023-02-21T05:52:36;6.80;99.90
46706;DHT22;33519;50.712;7.124;2023-02-21T05:55:03;6.70;99.90
46706;DHT22;33519;50.712;7.124;2023-02-21T05:57:30;6.60;99.90
46706;DHT22;33519;50.712;7.124;2023-02-21T05:59:56;6.60;99.90
46706;DHT22;33519;50.712;7.124;2023-02-21T06:02:23;6.50;99.90
46706;DHT22;33519;50.712;7.124;2023-02-21T06:04:49;6.50;99.90
46706;DHT22;33519;50.712;7.124;2023-02-21T06:07:16;6.50;99.90
46706;DHT22;33519;50.712;7.124;2023-02-21T06:09:44;6.50;99.90
46706;DHT22;33519;50.712;7.124;2023-02-21T06:12:10;6.40;99.90
46706;DHT22;33519;50.712;7.124;2023-02-21T06:14:37;6.40;99.90
46706;DHT22;33519;50.712;7.124;2023-02-21T06:17:03;6.40;99.90
46706;DHT22;33519;50.712;7.124;2023-02-21T06:19:33;6.40;99.90
46706;DHT22;33519;50.712;7.124;2023-02-21T06:21:59;6.50;99.90
46706;DHT22;33519;50.712;7.124;2023-02-21T06:24:26;6.40;99.90
46706;DHT22;33519;50.712;7.124;2023-02-21T06:26:53;6.50;99.90
46706;DHT22;33519;50.712;7.124;2023-02-21T06:29:19;6.50;99.90
46706;DHT22;33519;50.712;7.124;2023-02-21T06:31:46;6.50;99.90
46706;DHT22;33519;50.712;7.124;2023-02-21T06:34:12;6.50;99.90
46706;DHT22;33519;50.712;7.124;2023-02-21T06:36:39;6.50;99.90
46706;DHT22;33519;50.712;7.124;2023-02-21T06:39:05;6.50;99.90
46706;DHT22;33519;50.712;7.124;2023-02-21T06:41:33;6.50;99.90
46706;DHT22;33519;50.712;7.124;2023-02-21T06:44:00;6.50;99.90
46706;DHT22;33519;50.712;7.124;2023-02-21T06:46:27;6.50;99.90
46706;DHT22;33519;50.712;7.124;2023-02-21T06:48:54;6.50;99.90
46706;DHT22;33519;50.712;7.124;2023-02-21T06:51:21;6.50;99.90
46706;DHT22;33519;50.712;7.124;2023-02-21T06:53:55;6.50;99.90
46706;DHT22;33519;50.712;7.124;2023-02-21T06:56:22;6.50;99.90
46706;DHT22;33519;50.712;7.124;2023-02-21T06:58:48;6.50;99.90
46706;DHT22;33519;50.712;7.124;2023-02-21T07:01:15;6.50;99.90
46706;DHT22;33519;50.712;7.124;2023-02-21T07:03:42;6.60;99.90
46706;DHT22;33519;50.712;7.124;2023-02-21T07:06:10;6.60;99.90
46706;DHT22;33519;50.712;7.124;2023-02-21T07:08:37;6.70;99.90
46706;DHT22;33519;50.712;7.124;2023-02-21T07:11:04;6.80;99.90
46706;DHT22;33519;50.712;7.124;2023-02-21T07:13:31;6.70;99.90
46706;DHT22;33519;50.712;7.124;2023-02-21T07:15:58;6.70;99.90
46706;DHT22;33519;50.712;7.124;2023-02-21T07:18:25;6.70;99.90
46706;DHT22;33519;50.712;7.124;2023-02-21T07:20:51;6.70;99.90
46706;DHT22;33519;50.712;7.124;2023-02-21T07:23:18;6.70;99.90
46706;DHT22;33519;50.712;7.124;2023-02-21T07:25:44;6.80;99.90
46706;DHT22;33519;50.712;7.124;2023-02-21T07:28:11;6.80;99.90
46706;DHT22;33519;50.712;7.124;2023-02-21T07:30:37;6.80;99.90
46706;DHT22;33519;50.712;7.124;2023-02-21T07:33:04;6.90;99.90
46706;DHT22;33519;50.712;7.124;2023-02-21T07:35:31;6.90;99.90
46706;DHT22;33519;50.712;7.124;2023-02-21T07:37:57;6.90;99.90
46706;DHT22;33519;50.712;7.124;2023-02-21T07:40:24;7.00;99.90
46706;DHT22;33519;50.712;7.124;2023-02-21T07:42:50;7.10;99.90
46706;DHT22;33519;50.712;7.124;2023-02-21T07:45:17;7.20;99.90
46706;DHT22;33519;50.712;7.124;2023-02-21T07:47:44;7.20;99.90
46706;DHT22;33519;50.712;7.124;2023-02-21T07:50:14;7.40;99.90
46706;DHT22;33519;50.712;7.124;2023-02-21T07:52:41;7.40;99.90
46706;DHT22;33519;50.712;7.124;2023-02-21T07:55:07;7.30;99.90
46706;DHT22;33519;50.712;7.124;2023-02-21T07:57:34;7.30;99.90
46706;DHT22;33519;50.712;7.124;2023-02-21T08:00:01;7.30;99.90
46706;DHT22;33519;50.712;7.124;2023-02-21T08:02:27;7.40;99.90
46706;DHT22;33519;50.712;7.124;2023-02-21T08:04:54;7.50;99.90
46706;DHT22;33519;50.712;7.124;2023-02-21T08:07:20;7.70;99.90
46706;DHT22;33519;50.712;7.124;2023-02-21T08:09:47;7.80;99.90
46706;DHT22;33519;50.712;7.124;2023-02-21T08:12:14;7.80;99.90
46706;DHT22;33519;50.712;7.124;2023-02-21T08:14:40;7.80;99.90
46706;DHT22;33519;50.712;7.124;2023-02-21T08:17:07;7.90;99.90
46706;DHT22;33519;50.712;7.124;2023-02-21T08:19:33;8.00;99.90
46706;DHT22;33519;50.712;7.124;2023-02-21T08:22:00;7.90;99.90
46706;DHT22;33519;50.712;7.124;2023-02-21T08:24:27;7.90;99.90
46706;DHT22;33519;50.712;7.124;2023-02-21T08:26:53;8.10;99.90
46706;DHT22;33519;50.712;7.124;2023-02-21T08:29:20;8.30;99.90
46706;DHT22;33519;50.712;7.124;2023-02-21T08:31:46;8.40;99.90
46706;DHT22;33519;50.712;7.124;2023-02-21T08:34:13;8.70;99.90
46706;DHT22;33519;50.712;7.124;2023-02-21T08:36:41;8.80;99.90
46706;DHT22;33519;50.712;7.124;2023-02-21T08:39:08;9.00;99.90
46706;DHT22;33519;50.712;7.124;2023-02-21T08:41:36;9.00;99.90
46706;DHT22;33519;50.712;7.124;2023-02-21T08:44:04;9.00;99.90
46706;DHT22;33519;50.712;7.124;2023-02-21T08:46:31;8.90;99.90
46706;DHT22;33519;50.712;7.124;2023-02-21T08:48:57;8.70;99.90
46706;DHT22;33519;50.712;7.124;2023-02-21T08:51:25;8.90;99.90
46706;DHT22;33519;50.712;7.124;2023-02-21T08:53:51;8.90;99.90
46706;DHT22;33519;50.712;7.124;2023-02-21T08:56:19;9.10;99.90
46706;DHT22;33519;50.712;7.124;2023-02-21T08:58:46;9.30;99.90
46706;DHT22;33519;50.712;7.124;2023-02-21T09:01:12;9.60;99.90
46706;DHT22;33519;50.712;7.124;2023-02-21T09:03:40;9.80;99.90
46706;DHT22;33519;50.712;7.124;2023-02-21T09:06:06;9.90;99.90
46706;DHT22;33519;50.712;7.124;2023-02-21T09:08:34;10.30;99.90
46706;DHT22;33519;50.712;7.124;2023-02-21T09:11:04;10.60;99.90
46706;DHT22;33519;50.712;7.124;2023-02-21T09:13:31;10.90;99.90
46706;DHT22;33519;50.712;7.124;2023-02-21T09:16:01;11.00;99.90
46706;DHT22;33519;50.712;7.124;2023-02-21T09:18:28;11.30;99.90
46706;DHT22;33519;50.712;7.124;2023-02-21T09:20:56;11.90;99.90
46706;DHT22;33519;50.712;7.124;2023-02-21T09:23:23;12.20;99.90
46706;DHT22;33519;50.712;7.124;2023-02-21T09:25:53;12.70;99.90
46706;DHT22;33519;50.712;7.124;2023-02-21T09:28:20;13.50;99.90
46706;DHT22;33519;50.712;7.124;2023-02-21T09:30:47;14.00;99.90
46706;DHT22;33519;50.712;7.124;2023-02-21T09:33:20;14.80;99.90
46706;DHT22;33519;50.712;7.124;2023-02-21T09:35:50;16.10;99.90
46706;DHT22;33519;50.712;7.124;2023-02-21T09:38:19;16.20;99.70
46706;DHT22;33519;50.712;7.124;2023-02-21T09:40:50;16.80;97.40
46706;DHT22;33519;50.712;7.124;2023-02-21T09:43:28;17.00;96.70
46706;DHT22;33519;50.712;7.124;2023-02-21T09:45:57;17.00;96.10
46706;DHT22;33519;50.712;7.124;2023-02-21T09:48:26;18.10;94.60
46706;DHT22;33519;50.712;7.124;2023-02-21T09:50:55;18.40;93.00
46706;DHT22;33519;50.712;7.124;2023-02-21T09:53:27;18.30;92.20
46706;DHT22;33519;50.712;7.124;2023-02-21T09:55:56;18.80;91.40
46706;DHT22;33519;50.712;7.124;2023-02-21T09:58:25;18.50;91.90
46706;DHT22;33519;50.712;7.124;2023-02-21T10:00:52;18.80;91.00
46706;DHT22;33519;50.712;7.124;2023-02-21T10:16:32;17.90;91.70
46706;DHT22;33519;50.712;7.124;2023-02-21T10:21:42;18.00;91.70
46706;DHT22;33519;50.712;7.124;2023-02-21T10:24:12;18.40;91.60
46706;DHT22;33519;50.712;7.124;2023-02-21T10:26:39;19.00;90.20
46706;DHT22;33519;50.712;7.124;2023-02-21T10:31:59;20.10;87.10
46706;DHT22;33519;50.712;7.124;2023-02-21T10:34:29;19.90;86.40
46706;DHT22;33519;50.712;7.124;2023-02-21T10:39:45;19.20;84.70
46706;DHT22;33519;50.712;7.124;2023-02-21T10:42:17;19.70;84.80
46706;DHT22;33519;50.712;7.124;2023-02-21T10:44:52;20.20;86.40
46706;DHT22;33519;50.712;7.124;2023-02-21T10:47:22;20.20;83.40
46706;DHT22;33519;50.712;7.124;2023-02-21T10:49:53;21.10;82.90
46706;DHT22;33519;50.712;7.124;2023-02-21T10:52:25;21.50;81.20
46706;DHT22;33519;50.712;7.124;2023-02-21T10:54:59;21.20;80.20
46706;DHT22;33519;50.712;7.124;2023-02-21T10:57:25;20.90;80.80
46706;DHT22;33519;50.712;7.124;2023-02-21T10:59:52;20.50;81.30
46706;DHT22;33519;50.712;7.124;2023-02-21T11:02:24;21.80;81.50
46706;DHT22;33519;50.712;7.124;2023-02-21T11:04:52;20.70;78.20
46706;DHT22;33519;50.712;7.124;2023-02-21T11:07:19;20.10;82.80
46706;DHT22;33519;50.712;7.124;2023-02-21T11:09:52;21.00;82.20
46706;DHT22;33519;50.712;7.124;2023-02-21T11:12:22;21.10;81.10
46706;DHT22;33519;50.712;7.124;2023-02-21T11:17:19;21.10;83.40
46706;DHT22;33519;50.712;7.124;2023-02-21T11:19:56;19.00;85.20
46706;DHT22;33519;50.712;7.124;2023-02-21T11:22:24;19.10;85.70
46706;DHT22;33519;50.712;7.124;2023-02-21T11:27:21;19.30;88.70
46706;DHT22;33519;50.712;7.124;2023-02-21T11:29:48;19.30;89.30
46706;DHT22;33519;50.712;7.124;2023-02-21T11:32:23;19.30;85.30
46706;DHT22;33519;50.712;7.124;2023-02-21T11:34:51;19.10;87.10
46706;DHT22;33519;50.712;7.124;2023-02-21T11:37:27;19.10;88.10
46706;DHT22;33519;50.712;7.124;2023-02-21T11:39:57;19.40;86.40
46706;DHT22;33519;50.712;7.124;2023-02-21T11:45:29;19.80;84.50
46706;DHT22;33519;50.712;7.124;2023-02-21T11:47:56;19.90;85.00
46706;DHT22;33519;50.712;7.124;2023-02-21T11:50:34;20.10;83.30
46706;DHT22;33519;50.712;7.124;2023-02-21T11:53:06;20.50;85.40
46706;DHT22;33519;50.712;7.124;2023-02-21T11:55:38;20.00;86.20
46706;DHT22;33519;50.712;7.124;2023-02-21T12:01:17;20.60;83.20
46706;DHT22;33519;50.712;7.124;2023-02-21T12:03:57;20.20;82.40
46706;DHT22;33519;50.712;7.124;2023-02-21T12:09:23;20.40;83.40
46706;DHT22;33519;50.712;7.124;2023-02-21T12:11:56;20.10;83.90
46706;DHT22;33519;50.712;7.124;2023-02-21T12:17:08;20.30;86.00
46706;DHT22;33519;50.712;7.124;2023-02-21T12:35:50;21.10;82.10
46706;DHT22;33519;50.712;7.124;2023-02-21T12:43:35;20.10;87.70
46706;DHT22;33519;50.712;7.124;2023-02-21T12:48:40;21.20;84.10
46706;DHT22;33519;50.712;7.124;2023-02-21T12:51:10;21.00;85.10
46706;DHT22;33519;50.712;7.124;2023-02-21T12:56:58;21.40;82.90
46706;DHT22;33519;50.712;7.124;2023-02-21T12:59:19;20.60;84.30
46706;DHT22;33519;50.712;7.124;2023-02-21T13:01:48;18.50;89.20
46706;DHT22;33519;50.712;7.124;2023-02-21T13:07:32;19.20;88.20
46706;DHT22;33519;50.712;7.124;2023-02-21T13:09:38;19.10;88.10
46706;DHT22;33519;50.712;7.124;2023-02-21T13:12:13;18.60;89.30
46706;DHT22;33519;50.712;7.124;2023-02-21T13:14:43;19.00;88.70
46706;DHT22;33519;50.712;7.124;2023-02-21T13:17:12;18.80;88.30
46706;DHT22;33519;50.712;7.124;2023-02-21T13:19:53;18.80;90.50
46706;DHT22;33519;50.712;7.124;2023-02-21T13:28:23;19.90;90.20
46706;DHT22;33519;50.712;7.124;2023-02-21T13:30:58;20.00;85.50
46706;DHT22;33519;50.712;7.124;2023-02-21T13:33:35;18.30;90.50
46706;DHT22;33519;50.712;7.124;2023-02-21T13:38:45;18.60;93.80
46706;DHT22;33519;50.712;7.124;2023-02-21T13:41:12;19.10;91.00
46706;DHT22;33519;50.712;7.124;2023-02-21T13:43:46;20.40;88.70
46706;DHT22;33519;50.712;7.124;2023-02-21T13:46:22;21.00;87.90
46706;DHT22;33519;50.712;7.124;2023-02-21T13:51:46;21.00;87.00
46706;DHT22;33519;50.712;7.124;2023-02-21T13:54:13;21.40;87.80
46706;DHT22;33519;50.712;7.124;2023-02-21T13:56:47;21.80;85.30
46706;DHT22;33519;50.712;7.124;2023-02-21T13:59:29;21.40;84.80
46706;DHT22;33519;50.712;7.124;2023-02-21T14:02:21;21.10;86.20
46706;DHT22;33519;50.712;7.124;2023-02-21T14:04:59;20.20;88.70
46706;DHT22;33519;50.712;7.124;2023-02-21T14:07:43;21.10;86.70
46706;DHT22;33519;50.712;7.124;2023-02-21T14:10:17;20.10;89.50
46706;DHT22;33519;50.712;7.124;2023-02-21T14:12:50;20.40;88.70
46706;DHT22;33519;50.712;7.124;2023-02-21T14:15:17;20.80;87.70
46706;DHT22;33519;50.712;7.124;2023-02-21T14:17:45;20.70;87.50
46706;DHT22;33519;50.712;7.124;2023-02-21T14:20:16;20.60;88.20
46706;DHT22;33519;50.712;7.124;2023-02-21T14:22:45;20.80;87.30
46706;DHT22;33519;50.712;7.124;2023-02-21T14:25:16;20.40;86.80
46706;DHT22;33519;50.712;7.124;2023-02-21T14:27:43;18.90;90.60
46706;DHT22;33519;50.712;7.124;2023-02-21T14:32:40;18.60;91.40
46706;DHT22;33519;50.712;7.124;2023-02-21T14:38:03;19.20;90.70
46706;DHT22;33519;50.712;7.124;2023-02-21T14:45:58;19.80;90.10
46706;DHT22;33519;50.712;7.124;2023-02-21T14:48:48;20.00;90.10
46706;DHT22;33519;50.712;7.124;2023-02-21T15:09:26;18.10;94.40
46706;DHT22;33519;50.712;7.124;2023-02-21T15:11:53;18.10;94.50
46706;DHT22;33519;50.712;7.124;2023-02-21T15:14:23;17.70;93.50
46706;DHT22;33519;50.712;7.124;2023-02-21T15:16:52;17.30;95.00
46706;DHT22;33519;50.712;7.124;2023-02-21T15:19:33;17.70;95.00
46706;DHT22;33519;50.712;7.124;2023-02-21T15:22:09;17.70;94.80
46706;DHT22;33519;50.712;7.124;2023-02-21T15:24:39;17.60;94.90
46706;DHT22;33519;50.712;7.124;2023-02-21T15:27:12;17.00;96.40
46706;DHT22;33519;50.712;7.124;2023-02-21T15:29:39;17.30;96.10
46706;DHT22;33519;50.712;7.124;2023-02-21T15:32:06;16.70;96.50
46706;DHT22;33519;50.712;7.124;2023-02-21T15:34:40;17.70;96.50
46706;DHT22;33519;50.712;7.124;2023-02-21T15:37:26;18.10;94.50
46706;DHT22;33519;50.712;7.124;2023-02-21T15:39:58;18.60;94.00
46706;DHT22;33519;50.712;7.124;2023-02-21T15:42:26;17.60;94.80
46706;DHT22;33519;50.712;7.124;2023-02-21T15:45:00;18.50;94.10
46706;DHT22;33519;50.712;7.124;2023-02-21T15:47:28;18.50;93.10
46706;DHT22;33519;50.712;7.124;2023-02-21T15:50:00;17.40;95.00
46706;DHT22;33519;50.712;7.124;2023-02-21T15:52:35;17.10;95.20
46706;DHT22;33519;50.712;7.124;2023-02-21T16:02:50;17.30;96.10
46706;DHT22;33519;50.712;7.124;2023-02-21T16:05:24;18.00;95.30
46706;DHT22;33519;50.712;7.124;2023-02-21T16:07:51;18.70;93.90
46706;DHT22;33519;50.712;7.124;2023-02-21T16:10:20;18.80;93.60
46706;DHT22;33519;50.712;7.124;2023-02-21T16:12:55;19.10;93.10
46706;DHT22;33519;50.712;7.124;2023-02-21T16:15:24;18.90;93.20
46706;DHT22;33519;50.712;7.124;2023-02-21T16:17:54;18.30;93.80
46706;DHT22;33519;50.712;7.124;2023-02-21T16:20:29;17.40;95.00
46706;DHT22;33519;50.712;7.124;2023-02-21T16:28:26;14.20;99.90
46706;DHT22;33519;50.712;7.124;2023-02-21T16:30:55;14.20;99.90
46706;DHT22;33519;50.712;7.124;2023-02-21T16:33:26;14.00;99.90
46706;DHT22;33519;50.712;7.124;2023-02-21T16:35:53;14.00;99.90
46706;DHT22;33519;50.712;7.124;2023-02-21T16:38:21;14.00;99.90
46706;DHT22;33519;50.712;7.124;2023-02-21T16:40:48;13.80;99.90
46706;DHT22;33519;50.712;7.124;2023-02-21T16:43:16;13.20;99.90
46706;DHT22;33519;50.712;7.124;2023-02-21T16:45:43;13.20;99.90
46706;DHT22;33519;50.712;7.124;2023-02-21T16:48:12;12.90;99.90
46706;DHT22;33519;50.712;7.124;2023-02-21T16:50:40;12.50;99.90
46706;DHT22;33519;50.712;7.124;2023-02-21T16:53:08;12.20;99.90
46706;DHT22;33519;50.712;7.124;2023-02-21T16:55:37;11.80;99.90
46706;DHT22;33519;50.712;7.124;2023-02-21T16:58:05;11.80;99.90
46706;DHT22;33519;50.712;7.124;2023-02-21T17:00:32;11.70;99.90
46706;DHT22;33519;50.712;7.124;2023-02-21T17:02:59;11.80;99.90
46706;DHT22;33519;50.712;7.124;2023-02-21T17:05:26;11.40;99.90
46706;DHT22;33519;50.712;7.124;2023-02-21T17:07:53;11.20;99.90
46706;DHT22;33519;50.712;7.124;2023-02-21T17:10:20;11.00;99.90
46706;DHT22;33519;50.712;7.124;2023-02-21T17:12:47;11.00;99.90
46706;DHT22;33519;50.712;7.124;2023-02-21T17:15:14;10.90;99.90
46706;DHT22;33519;50.712;7.124;2023-02-21T17:17:40;10.70;99.90
46706;DHT22;33519;50.712;7.124;2023-02-21T17:20:16;10.80;99.90
46706;DHT22;33519;50.712;7.124;2023-02-21T17:22:43;10.90;99.90
46706;DHT22;33519;50.712;7.124;2023-02-21T17:25:10;10.90;99.90
46706;DHT22;33519;50.712;7.124;2023-02-21T17:27:37;10.80;99.90
46706;DHT22;33519;50.712;7.124;2023-02-21T17:30:04;10.60;99.90
46706;DHT22;33519;50.712;7.124;2023-02-21T17:32:31;10.50;99.90
46706;DHT22;33519;50.712;7.124;2023-02-21T17:34:58;10.40;99.90
46706;DHT22;33519;50.712;7.124;2023-02-21T17:37:25;10.30;99.90
46706;DHT22;33519;50.712;7.124;2023-02-21T17:39:55;10.30;99.90
46706;DHT22;33519;50.712;7.124;2023-02-21T17:42:22;10.40;99.90
46706;DHT22;33519;50.712;7.124;2023-02-21T17:44:49;10.40;99.90
46706;DHT22;33519;50.712;7.124;2023-02-21T17:47:19;10.20;99.90
46706;DHT22;33519;50.712;7.124;2023-02-21T17:49:46;10.20;99.90
46706;DHT22;33519;50.712;7.124;2023-02-21T17:52:13;10.10;99.90
46706;DHT22;33519;50.712;7.124;2023-02-21T17:54:40;9.90;99.90
46706;DHT22;33519;50.712;7.124;2023-02-21T17:57:07;10.00;99.90
46706;DHT22;33519;50.712;7.124;2023-02-21T17:59:34;10.00;99.90
46706;DHT22;33519;50.712;7.124;2023-02-21T18:02:01;9.90;99.90
46706;DHT22;33519;50.712;7.124;2023-02-21T18:04:28;9.80;99.90
46706;DHT22;33519;50.712;7.124;2023-02-21T18:06:55;9.70;99.90
46706;DHT22;33519;50.712;7.124;2023-02-21T18:09:21;9.70;99.90
46706;DHT22;33519;50.712;7.124;2023-02-21T18:11:49;9.70;99.90
46706;DHT22;33519;50.712;7.124;2023-02-21T18:14:17;9.60;99.90
46706;DHT22;33519;50.712;7.124;2023-02-21T18:16:44;9.40;99.90
46706;DHT22;33519;50.712;7.124;2023-02-21T18:19:11;9.40;99.90
46706;DHT22;33519;50.712;7.124;2023-02-21T18:21:37;9.30;99.90
46706;DHT22;33519;50.712;7.124;2023-02-21T18:24:11;9.40;99.90
46706;DHT22;33519;50.712;7.124;2023-02-21T18:26:39;9.40;99.90
46706;DHT22;33519;50.712;7.124;2023-02-21T18:29:06;9.40;99.90
46706;DHT22;33519;50.712;7.124;2023-02-21T18:31:33;9.30;99.90
46706;DHT22;33519;50.712;7.124;2023-02-21T18:34:01;9.30;99.90